Language: 


Des rapports , des résumés tant et plus, au choix de chacun....


Données statistiques de la station
Quotidien Rapport Décembre 13, 2017 Unités:  Métrique    Anglais   les deux
« Précédent Jour
Suivant Jour »
Quotidien Hebdomadaire Mensuel Annuel Actuel
  Haut: Bas: Moyen:
Température: -17.8 °C -17.8 °C -14.6 °C
Pt de rosée: -17.8 °C -16.7 °C -14.6 °C
Humidité: Humidity % 0 % 96 %
Vitesse du vent: 0 km/h 0 km/h 21.1 km/h
Rafales: 0 km/h - -
Vent:- - SW
Pression: 0 hPa 0 hPa -
Précipitation: 0 mm    
Historical Graphs
 
 
Données statistiques pour Décembre 13, 2017
Heure Température Point de rosée Pression Vent Vitesse du vent Refales Humidité Pluie (taux horaire)
-17.8 °C -17.8 °C 0 hPa Calm     Humidity % 0 mm
00:00 -16.7 °C -16.7 °C 34235.8 hPa South 18.7 km/h 26.2 km/h 98 % 0 mm
00:05 -16.7 °C -16.7 °C 34235.8 hPa South 22.5 km/h 24.8 km/h 98 % 0 mm
00:10 -16.6 °C -16.7 °C 34235.8 hPa South 10.3 km/h 24.3 km/h 98 % 0 mm
00:15 -16.6 °C -16.7 °C 34235.8 hPa SSW 15.6 km/h 22.5 km/h 98 % 0 mm
00:20 -16.6 °C -16.7 °C 34235.8 hPa SSW 16.9 km/h 27.7 km/h 98 % 0 mm
00:25 -16.6 °C -16.7 °C 34235.8 hPa SSW 22 km/h 27.7 km/h 98 % 0 mm
00:30 -16.5 °C -16.1 °C 34235.8 hPa SW 16.9 km/h 31.9 km/h 98 % 0 mm
00:35 -16.5 °C -16.1 °C 34235.8 hPa South 25.4 km/h 31.9 km/h 98 % 0 mm
00:40 -16.5 °C -16.1 °C 34235.8 hPa South 9.8 km/h 27.2 km/h 98 % 0 mm
00:55 -16.4 °C -16.1 °C 34198.6 hPa South 22.5 km/h 36 km/h 98 % 0 mm
01:16 -16.4 °C -16.1 °C 34198.6 hPa SSW 20.3 km/h 33.2 km/h 98 % 0 mm
01:21 -16.4 °C -16.1 °C 34198.6 hPa SSW 19.6 km/h 31.9 km/h 98 % 0 mm
01:26 -16.4 °C -16.1 °C 34198.6 hPa SSW 20.9 km/h 31.9 km/h 98 % 0 mm
01:36 -16.4 °C -16.1 °C 34164.7 hPa South 16.3 km/h 33.6 km/h 98 % 0 mm
01:41 -16.4 °C -16.1 °C 34164.7 hPa SSW 26.2 km/h 39.4 km/h 98 % 0 mm
01:46 -16.4 °C -16.1 °C 34164.7 hPa South 16.3 km/h 39.4 km/h 98 % 7.62 mm
01:56 -16.4 °C -16.1 °C 34164.7 hPa SSW 22 km/h 29 km/h 98 % 7.62 mm
02:11 -16.4 °C -16.1 °C 34164.7 hPa SSW 20.3 km/h 38.3 km/h 98 % 7.62 mm
02:26 -16.3 °C -16.1 °C 34130.9 hPa SSW 20.3 km/h 37.5 km/h 98 % 7.62 mm
02:37 -16.3 °C -16.1 °C 34130.9 hPa SSW 22 km/h 27.7 km/h 98 % 7.62 mm
02:42 -16.3 °C -16.1 °C 34164.7 hPa SSW 15 km/h 34.1 km/h 98 % 7.62 mm
02:47 -16.3 °C -16.1 °C 34164.7 hPa South 31.9 km/h 34.1 km/h 98 % 0 mm
02:52 -16.3 °C -16.1 °C 34164.7 hPa SW 15.6 km/h 31.9 km/h 98 % 0 mm
02:57 -16.2 °C -16.1 °C 34130.9 hPa South 22.5 km/h 36 km/h 98 % 0 mm
03:08 -17.8 °C -16.1 °C 0 hPa South 20.3 km/h 20.3 km/h 0 % 0 mm
03:13 -16.1 °C -16.1 °C 34097 hPa SSW 28.5 km/h 32.3 km/h 98 % 0 mm
03:18 -16.1 °C -16.1 °C 34097 hPa South 26.2 km/h 38.3 km/h 98 % 0 mm
03:23 -16.1 °C -16.1 °C 34097 hPa South 15.6 km/h 38.3 km/h 98 % 0 mm
03:28 -16 °C -16.1 °C 34097 hPa SSW 26.2 km/h 37 km/h 98 % 0 mm
03:38 -15.9 °C -16.1 °C 34097 hPa South 26.2 km/h 33.6 km/h 98 % 0 mm
03:44 -15.9 °C -16.1 °C 34097 hPa South 29.5 km/h 32.3 km/h 98 % 0 mm
03:49 -15.8 °C -15.6 °C 34097 hPa SSW 23 km/h 32.3 km/h 98 % 0 mm
04:14 -15.7 °C -15.6 °C 34063.2 hPa SSW 20.9 km/h 31.4 km/h 98 % 0 mm
04:19 -15.7 °C -15.6 °C 34063.2 hPa South 20.3 km/h 32.3 km/h 98 % 0 mm
04:25 -15.7 °C -15.6 °C 34063.2 hPa South 26.2 km/h 39.9 km/h 98 % 0 mm
04:26 -15.7 °C -15.6 °C 34097 hPa South 19.2 km/h 39.9 km/h 98 % 0 mm
04:37 -15.7 °C -15.6 °C 34097 hPa SSW 24.8 km/h 34.1 km/h 98 % 7.62 mm
04:47 -15.7 °C -15.6 °C 34063.2 hPa South 27.7 km/h 32.3 km/h 98 % 7.62 mm
04:52 -15.7 °C -15.6 °C 34063.2 hPa SSE 33.6 km/h 39.4 km/h 98 % 7.62 mm
04:57 -15.7 °C -15.6 °C 34029.3 hPa SSW 20.9 km/h 40.7 km/h 98 % 7.62 mm
05:02 -15.7 °C -15.6 °C 34029.3 hPa South 22.5 km/h 40.7 km/h 98 % 7.62 mm
05:07 -15.6 °C -15.6 °C 34029.3 hPa South 26.2 km/h 45.1 km/h 98 % 7.62 mm
05:12 -15.6 °C -15.6 °C 34029.3 hPa SSW 36.5 km/h 45.1 km/h 98 % 7.62 mm
05:17 -15.6 °C -15.6 °C 34029.3 hPa South 33.6 km/h 36.5 km/h 98 % 7.62 mm
05:27 -15.5 °C -15.6 °C 34029.3 hPa South 27.2 km/h 43.5 km/h 98 % 12.7 mm
05:37 -15.5 °C -15.6 °C 34029.3 hPa SSW 30.7 km/h 38.3 km/h 98 % 7.62 mm
05:42 -15.4 °C -15.6 °C 33992.1 hPa SSW 20.9 km/h 39.4 km/h 98 % 7.62 mm
05:47 -15.4 °C -15.6 °C 33992.1 hPa South 39.9 km/h 45.1 km/h 98 % 7.62 mm
05:52 -15.4 °C -15.6 °C 33992.1 hPa South 33.6 km/h 45.1 km/h 98 % 7.62 mm
05:57 -15.4 °C -15.6 °C 33992.1 hPa SSW 26.2 km/h 52.8 km/h 98 % 7.62 mm
06:03 -15.3 °C -15.6 °C 33992.1 hPa SSW 26.2 km/h 52.8 km/h 98 % 7.62 mm
06:08 -15.3 °C -15.6 °C 33992.1 hPa WSW 26.7 km/h 44.1 km/h 98 % 7.62 mm
06:13 -15.3 °C -15 °C 33958.2 hPa SSW 20.9 km/h 46.3 km/h 98 % 7.62 mm
06:18 -15.2 °C -15 °C 33958.2 hPa SSW 32.3 km/h 46.3 km/h 98 % 12.7 mm
06:23 -15.2 °C -15 °C 33958.2 hPa SSW 26.7 km/h 45.9 km/h 98 % 12.7 mm
06:33 -15.3 °C -15 °C 33924.3 hPa South 20.9 km/h 53.3 km/h 98 % 7.62 mm
06:43 -15.3 °C -15 °C 33958.2 hPa South 27.7 km/h 45.9 km/h 98 % 7.62 mm
06:48 -15.3 °C -15 °C 33958.2 hPa WSW 19.2 km/h 45.9 km/h 98 % 7.62 mm
06:53 -15.3 °C -15 °C 33958.2 hPa SSW 33.6 km/h 44.1 km/h 98 % 7.62 mm
06:58 -15.3 °C -15.6 °C 33958.2 hPa South 32.3 km/h 40.7 km/h 98 % 12.7 mm
07:08 -15.3 °C -15 °C 33958.2 hPa SW 19.6 km/h 34.1 km/h 98 % 12.7 mm
07:18 -15.3 °C -15.6 °C 33924.3 hPa SSW 26.2 km/h 35.2 km/h 98 % 7.62 mm
07:23 -15.3 °C -15.6 °C 33924.3 hPa South 45.9 km/h 45.9 km/h 98 % 7.62 mm
07:28 -15.3 °C -15.6 °C 33924.3 hPa SSW 18.7 km/h 45.9 km/h 98 % 7.62 mm
07:30 -15.3 °C -15.6 °C 33924.3 hPa South 23 km/h 45.9 km/h 98 % 7.62 mm
07:35 -15.3 °C -15 °C 33924.3 hPa SSW 20.9 km/h 44.1 km/h 98 % 7.62 mm
07:40 -15.3 °C -15 °C 33924.3 hPa SSW 31.9 km/h 44.1 km/h 98 % 7.62 mm
07:45 -15.3 °C -15 °C 33924.3 hPa SSW 22 km/h 44.1 km/h 98 % 7.62 mm
07:50 -15.2 °C -15 °C 33924.3 hPa SSW 20.3 km/h 49.7 km/h 98 % 7.62 mm
07:55 -15.2 °C -15 °C 33890.5 hPa South 24.8 km/h 49.7 km/h 98 % 7.62 mm
08:00 -15.2 °C -15 °C 33890.5 hPa SSW 26.2 km/h 53.3 km/h 98 % 0 mm
08:05 -15.2 °C -15 °C 33890.5 hPa South 27.2 km/h 53.3 km/h 98 % 0 mm
08:10 -15.2 °C -15 °C 33890.5 hPa South 20.9 km/h 44.6 km/h 98 % 0 mm
08:15 -15.2 °C -15 °C 33890.5 hPa SSW 26.2 km/h 41.2 km/h 98 % 0 mm
08:21 -15.2 °C -15 °C 33890.5 hPa South 20.3 km/h 39.4 km/h 98 % 0 mm
08:26 -15.1 °C -15 °C 33890.5 hPa SSW 20.3 km/h 39.4 km/h 98 % 0 mm
08:31 -15.1 °C -15 °C 33890.5 hPa SSW 19.2 km/h 37.5 km/h 98 % 0 mm
08:36 -15.1 °C -15 °C 33890.5 hPa SSW 22 km/h 44.1 km/h 98 % 0 mm
08:46 -15 °C -15 °C 33890.5 hPa WSW 22.5 km/h 49.2 km/h 98 % 0 mm
08:51 -15 °C -15 °C 33890.5 hPa SW 19.6 km/h 32.3 km/h 98 % 0 mm
08:56 -15 °C -15 °C 33890.5 hPa South 25.4 km/h 33.2 km/h 98 % 0 mm
08:59 -15 °C -15 °C 33890.5 hPa South 26.2 km/h 50.5 km/h 98 % 0 mm
09:09 -14.9 °C -15 °C 33890.5 hPa WSW 22 km/h 41.2 km/h 98 % 0 mm
09:14 -14.9 °C -15 °C 33890.5 hPa SSW 19.2 km/h 36 km/h 98 % 0 mm
09:19 -14.9 °C -15 °C 33890.5 hPa WSW 19.2 km/h 36 km/h 98 % 0 mm
09:24 -14.8 °C -14.4 °C 33890.5 hPa SSW 26.7 km/h 33.6 km/h 98 % 0 mm
09:29 -14.8 °C -14.4 °C 33890.5 hPa WSW 20.9 km/h 36 km/h 98 % 0 mm
09:44 -14.6 °C -14.4 °C 33856.6 hPa SSW 26.2 km/h 39.4 km/h 98 % 0 mm
09:49 -14.4 °C -14.4 °C 33856.6 hPa SW 27.7 km/h 45.1 km/h 98 % 0 mm
10:04 -14.3 °C -14.4 °C 33856.6 hPa SW 20.3 km/h 39.9 km/h 98 % 0 mm
10:15 -14.2 °C -14.4 °C 33856.6 hPa WSW 19.6 km/h 34.1 km/h 98 % 7.62 mm
10:20 -14.2 °C -14.4 °C 33856.6 hPa WSW 28.5 km/h 39.4 km/h 98 % 7.62 mm
10:30 -14.2 °C -13.9 °C 33856.6 hPa SSW 22.5 km/h 38.3 km/h 98 % 7.62 mm
10:35 -14.1 °C -13.9 °C 33856.6 hPa SW 22 km/h 37 km/h 98 % 7.62 mm
10:40 -14.1 °C -13.9 °C 33856.6 hPa SSW 20.3 km/h 37 km/h 98 % 7.62 mm
10:50 -14 °C -13.9 °C 33856.6 hPa SW 14 km/h 30.7 km/h 98 % 7.62 mm
10:55 -14 °C -13.9 °C 33856.6 hPa SW 22 km/h 26.2 km/h 98 % 7.62 mm
11:00 -14 °C -13.9 °C 33856.6 hPa WSW 22 km/h 26.2 km/h 98 % 7.62 mm
11:05 -14 °C -13.9 °C 33856.6 hPa SSW 19.6 km/h 24.3 km/h 98 % 7.62 mm
11:10 -14 °C -13.9 °C 33856.6 hPa WSW 15 km/h 24.3 km/h 98 % 7.62 mm
11:15 -14 °C -13.9 °C 33856.6 hPa WSW 16.3 km/h 22 km/h 98 % 0 mm
11:20 -14 °C -13.9 °C 33856.6 hPa SSW 16.3 km/h 19.6 km/h 98 % 0 mm
11:25 -13.9 °C -13.9 °C 33856.6 hPa SW 15 km/h 19.6 km/h 98 % 0 mm
11:30 -13.9 °C -13.9 °C 33856.6 hPa SW 14 km/h 18.7 km/h 98 % 0 mm
11:35 -13.9 °C -13.9 °C 33856.6 hPa SSW 15 km/h 19.2 km/h 98 % 0 mm
11:40 -13.9 °C -13.9 °C 33856.6 hPa SW 20.3 km/h 22.5 km/h 98 % 0 mm
11:45 -13.7 °C -13.9 °C 33856.6 hPa SSW 14.5 km/h 24.8 km/h 98 % 0 mm
11:51 -13.7 °C -13.9 °C 33856.6 hPa SSW 19.2 km/h 24.8 km/h 98 % 0 mm
11:56 -13.7 °C -13.9 °C 33856.6 hPa WSW 15 km/h 25.4 km/h 98 % 0 mm
12:01 -13.6 °C -13.3 °C 33856.6 hPa SW 10.3 km/h 25.4 km/h 98 % 0 mm
12:06 -13.6 °C -13.3 °C 33856.6 hPa SW 15.6 km/h 20.9 km/h 98 % 0 mm
12:16 -13.5 °C -13.3 °C 33856.6 hPa SSW 14.5 km/h 22 km/h 98 % 0 mm
12:21 -13.5 °C -13.3 °C 33856.6 hPa SW 15.6 km/h 22 km/h 98 % 0 mm
12:26 -13.4 °C -13.3 °C 33822.8 hPa SW 14 km/h 20.9 km/h 98 % 0 mm
12:31 -13.4 °C -13.3 °C 33822.8 hPa SW 12.2 km/h 20.9 km/h 98 % 0 mm
12:36 -13.4 °C -13.3 °C 33822.8 hPa SSW 15 km/h 22 km/h 98 % 0 mm
12:41 -13.4 °C -13.3 °C 33788.9 hPa WSW 14.5 km/h 22 km/h 98 % 0 mm
12:46 -13.4 °C -13.3 °C 33788.9 hPa SW 11.6 km/h 22 km/h 98 % 0 mm
12:56 -13.4 °C -13.3 °C 33822.8 hPa SSW 20.9 km/h 26.7 km/h 98 % 0 mm
13:12 -13.4 °C -13.3 °C 33822.8 hPa SW 20.9 km/h 26.2 km/h 98 % 7.62 mm
13:17 -13.4 °C -13.3 °C 33822.8 hPa SW 23 km/h 25.4 km/h 98 % 7.62 mm
13:27 -13.3 °C -13.3 °C 33822.8 hPa WSW 20.9 km/h 26.2 km/h 98 % 7.62 mm
13:32 -13.3 °C -13.3 °C 33822.8 hPa WSW 20.9 km/h 27.2 km/h 98 % 7.62 mm
13:37 -13.3 °C -13.3 °C 33822.8 hPa WSW 14.5 km/h 27.2 km/h 98 % 12.7 mm
13:42 -13.3 °C -13.3 °C 33788.9 hPa SW 15.6 km/h 26.7 km/h 98 % 12.7 mm
13:52 -13.4 °C -13.3 °C 33788.9 hPa SSW 14.5 km/h 20.9 km/h 98 % 12.7 mm
13:57 -13.4 °C -13.3 °C 33788.9 hPa SSW 14.5 km/h 19.2 km/h 98 % 12.7 mm
14:02 -13.4 °C -13.3 °C 33788.9 hPa SW 16.3 km/h 20.9 km/h 98 % 12.7 mm
14:07 -13.4 °C -13.3 °C 33788.9 hPa SW 15.6 km/h 20.9 km/h 98 % 7.62 mm
14:12 -13.4 °C -13.3 °C 33788.9 hPa SW 15.6 km/h 19.2 km/h 98 % 12.7 mm
14:17 -13.4 °C -13.3 °C 33788.9 hPa SSW 12.2 km/h 20.9 km/h 98 % 12.7 mm
14:28 -13.4 °C -13.3 °C 33751.6 hPa SW 14.5 km/h 19.2 km/h 98 % 12.7 mm
14:43 -13.4 °C -13.3 °C 33751.6 hPa SW 11.1 km/h 25.4 km/h 98 % 7.62 mm
14:48 -13.4 °C -13.3 °C 33751.6 hPa Calm   25.4 km/h 98 % 7.62 mm
14:53 -13.4 °C -13.3 °C 33751.6 hPa SSW 19.2 km/h 22.5 km/h 98 % 7.62 mm
14:58 -13.4 °C -13.3 °C 33751.6 hPa WSW 20.9 km/h 22.5 km/h 98 % 7.62 mm
15:03 -13.4 °C -13.3 °C 33751.6 hPa SSW 18.7 km/h 22.5 km/h 98 % 7.62 mm
15:09 -13.4 °C -13.3 °C 33751.6 hPa South 12.7 km/h 26.7 km/h 98 % 12.7 mm
15:14 -13.3 °C -13.3 °C 33751.6 hPa SSW 16.3 km/h 26.7 km/h 98 % 7.62 mm
15:19 -13.3 °C -13.3 °C 33751.6 hPa SSW 15 km/h 24.8 km/h 98 % 7.62 mm
15:24 -13.3 °C -13.3 °C 33751.6 hPa SW 14 km/h 22.5 km/h 98 % 7.62 mm
15:49 -13.3 °C -13.3 °C 33694.1 hPa SSW 11.1 km/h 22.5 km/h 98 % 7.62 mm
15:59 -13.3 °C -13.3 °C 33694.1 hPa WSW 16.9 km/h 22.5 km/h 98 % 20.32 mm
16:09 -13.3 °C -13.3 °C 33694.1 hPa SSW 16.9 km/h 26.2 km/h 98 % 7.62 mm
16:19 -13.3 °C -13.3 °C 33694.1 hPa SW 16.3 km/h 29 km/h 98 % 7.62 mm
16:24 -13.3 °C -13.3 °C 33694.1 hPa WSW 16.3 km/h 29 km/h 98 % 20.32 mm
16:29 -13.3 °C -13.3 °C 33660.2 hPa SSW 20.3 km/h 31.4 km/h 98 % 25.4 mm
16:34 -13.3 °C -13.3 °C 33660.2 hPa SSW 15.6 km/h 31.4 km/h 98 % 33.02 mm
16:39 -13.3 °C -13.3 °C 33660.2 hPa South 22 km/h 26.2 km/h 98 % 38.1 mm
16:44 -13.3 °C -13.3 °C 33660.2 hPa SSW 12.7 km/h 26.7 km/h 98 % 45.72 mm
16:49 -13.3 °C -13.3 °C 33660.2 hPa SSW 20.9 km/h 26.7 km/h 98 % 45.72 mm
16:54 -13.3 °C -13.3 °C 33660.2 hPa SSW 14.5 km/h 27.2 km/h 98 % 58.42 mm
17:10 -13.2 °C -13.3 °C 33626.4 hPa SSW 14 km/h 22.5 km/h 98 % 58.42 mm
17:20 -13.2 °C -13.3 °C 33626.4 hPa SW 12.7 km/h 31.4 km/h 98 % 63.5 mm
17:25 -13.2 °C -12.8 °C 33626.4 hPa WSW 26.2 km/h 26.2 km/h 98 % 63.5 mm
17:30 -13.2 °C -12.8 °C 33592.5 hPa South 20.9 km/h 26.2 km/h 98 % 63.5 mm
17:35 -13.2 °C -12.8 °C 33592.5 hPa South 20.9 km/h 26.2 km/h 98 % 58.42 mm
17:40 -13.1 °C -12.8 °C 33592.5 hPa SSW 27.7 km/h 39.4 km/h 98 % 45.72 mm
17:45 -13.1 °C -12.8 °C 33558.6 hPa WSW 20.3 km/h 39.4 km/h 98 % 58.42 mm
17:50 -13.1 °C -12.8 °C 33558.6 hPa WSW 23.8 km/h 39.9 km/h 98 % 45.72 mm
17:55 -13.1 °C -12.8 °C 33558.6 hPa SW 20.3 km/h 39.9 km/h 98 % 71.12 mm
18:05 -13.1 °C -12.8 °C 33558.6 hPa WSW 27.7 km/h 39.4 km/h 98 % 91.44 mm
18:15 -13.1 °C -12.8 °C 33524.8 hPa SSW 36.5 km/h 43.5 km/h 98 % 116.84 mm
18:25 -13.1 °C -12.8 °C 33524.8 hPa WSW 24.8 km/h 43 km/h 98 % 109.22 mm
18:30 -13.1 °C -12.8 °C 33558.6 hPa SW 23 km/h 43 km/h 98 % 109.22 mm
18:35 -13.1 °C -12.8 °C 33558.6 hPa SW 19.6 km/h 36 km/h 98 % 109.22 mm
18:40 -13.1 °C -12.8 °C 33558.6 hPa WSW 27.2 km/h 34.1 km/h 98 % 147.32 mm
18:45 -13.1 °C -12.8 °C 33524.8 hPa WSW 20.9 km/h 32.3 km/h 98 % 134.62 mm
18:50 -13.1 °C -12.8 °C 33524.8 hPa WSW 26.2 km/h 32.3 km/h 98 % 142.24 mm
18:55 -13.1 °C -12.8 °C 33524.8 hPa SW 25.4 km/h 31.4 km/h 98 % 116.84 mm
19:00 -13.1 °C -12.8 °C 33490.9 hPa WSW 27.2 km/h 31.4 km/h 98 % 109.22 mm
19:10 -13 °C -12.8 °C 33490.9 hPa SW 25.4 km/h 34.1 km/h 98 % 76.2 mm
19:15 -13 °C -12.8 °C 33524.8 hPa WSW 34.1 km/h 38.3 km/h 98 % 63.5 mm
19:20 -13 °C -12.8 °C 33524.8 hPa WSW 32.3 km/h 1778.9 km/h 98 % 63.5 mm
19:25 -12.9 °C -12.8 °C 33524.8 hPa WSW 39.4 km/h 1778.9 km/h 98 % 58.42 mm
19:35 -13.1 °C -12.8 °C 33490.9 hPa West 28.5 km/h 77.7 km/h 98 % 104.14 mm
19:37 -13.1 °C -12.8 °C 33490.9 hPa West 9.3 km/h 77.7 km/h 98 % 104.14 mm
19:42 -13.1 °C -12.8 °C 33524.8 hPa West 25.4 km/h 61.3 km/h 98 % 63.5 mm
19:47 -13.2 °C -13.3 °C 33524.8 hPa West 22.5 km/h 44.6 km/h 98 % 58.42 mm
19:52 -13.2 °C -13.3 °C 33524.8 hPa West 24.8 km/h 44.6 km/h 98 % 58.42 mm
20:07 -13.4 °C -13.3 °C 33490.9 hPa WNW 33.2 km/h 48.1 km/h 98 % 58.42 mm
20:12 -13.6 °C -13.9 °C 33524.8 hPa West 27.2 km/h 48.1 km/h 96 % 58.42 mm
20:28 -13.7 °C -13.9 °C 33558.6 hPa West 33.2 km/h 52.8 km/h 95 % 58.42 mm
20:33 -13.8 °C -13.9 °C 33558.6 hPa West 27.7 km/h 52.8 km/h 95 % 58.42 mm
20:38 -13.9 °C -14.4 °C 33558.6 hPa WSW 26.2 km/h 41.2 km/h 95 % 7.62 mm
20:43 -13.9 °C -14.4 °C 33558.6 hPa West 53.9 km/h 53.9 km/h 95 % 5349.24 mm
20:48 -13.8 °C -14.4 °C 33558.6 hPa NW 22 km/h 53.9 km/h 95 % 7.62 mm
20:54 -13.9 °C -14.4 °C 33558.6 hPa WSW 28.5 km/h 53.9 km/h 95 % 7.62 mm
20:59 -14 °C -14.4 °C 33558.6 hPa WNW 22 km/h 31.4 km/h 93 % 7.62 mm
21:04 -14.1 °C -14.4 °C 33558.6 hPa WNW 33.6 km/h 36.5 km/h 91 % 0 mm
21:09 -14.2 °C -14.4 °C 33558.6 hPa West 28.5 km/h 36.5 km/h 91 % 0 mm
21:19 -14.3 °C -15 °C 33558.6 hPa WSW 20.3 km/h 38.3 km/h 90 % 0 mm
21:24 -14.4 °C -15 °C 33558.6 hPa WNW 14 km/h 43 km/h 90 % 0 mm
21:34 -14.5 °C -15 °C 33558.6 hPa West 25.4 km/h 32.3 km/h 89 % 0 mm
21:39 -14.6 °C -15.6 °C 33558.6 hPa West 20.9 km/h 34.1 km/h 88 % 0 mm
21:50 -14.6 °C -15.6 °C 33558.6 hPa West 15 km/h 42.2 km/h 88 % 0 mm
21:55 -14.6 °C -15.6 °C 33558.6 hPa West 26.7 km/h 42.2 km/h 88 % 0 mm
22:00 -14.6 °C -15.6 °C 33558.6 hPa SW 22 km/h 33.6 km/h 88 % 0 mm
22:05 -14.6 °C -15.6 °C 33558.6 hPa WSW 14 km/h 26.7 km/h 88 % 0 mm
22:10 -14.6 °C -15.6 °C 33558.6 hPa WSW 19.6 km/h 22 km/h 88 % 0 mm
22:15 -14.6 °C -15.6 °C 33558.6 hPa WSW 18.7 km/h 22 km/h 88 % 0 mm
22:20 -14.6 °C -15.6 °C 33558.6 hPa WSW 11.1 km/h 22 km/h 88 % 0 mm
22:25 -14.6 °C -15.6 °C 33558.6 hPa WSW 10.3 km/h 20.9 km/h 88 % 0 mm
22:30 -14.6 °C -15.6 °C 33558.6 hPa WSW 16.3 km/h 20.9 km/h 88 % 0 mm
22:35 -14.6 °C -15.6 °C 33558.6 hPa WSW 15.6 km/h 19.2 km/h 88 % 0 mm
22:40 -14.6 °C -15.6 °C 33558.6 hPa WSW 15.6 km/h 19.2 km/h 88 % 0 mm
22:45 -14.6 °C -15.6 °C 33558.6 hPa Calm   22 km/h 88 % 0 mm
22:50 -14.6 °C -15.6 °C 33558.6 hPa WSW 9.3 km/h 22 km/h 88 % 0 mm
23:00 -14.6 °C -15.6 °C 33558.6 hPa WSW 14 km/h 16.9 km/h 88 % 0 mm
23:05 -15.4 °C -16.1 °C 33558.6 hPa WSW 20.9 km/h 20.9 km/h 92 % 0 mm
23:15 -15.3 °C -16.1 °C 33558.6 hPa WSW 12.7 km/h 24.8 km/h 93 % 0 mm
23:20 -15.3 °C -16.1 °C 33558.6 hPa WSW 16.3 km/h 23 km/h 93 % 0 mm
23:25 -17.8 °C -15.6 °C 33490.9 hPa WSW 14 km/h 19.2 km/h 0 % 0 mm
23:36 -15.2 °C -15.6 °C 33490.9 hPa SW 10.3 km/h 16.3 km/h 94 % 0 mm
23:46 -15.2 °C -15.6 °C 33490.9 hPa Calm   14.5 km/h 94 % 0 mm
23:56 -15.1 °C -15.6 °C 33490.9 hPa SSW 15.6 km/h 22 km/h 94 % 0 mm
Le Gheer Warneton
Courtoisie de Weather Underground - 2 mb

Mise a jour : 25/02/2018 14:56:11
Généré par Cumulus 1.9.4 (1099)